KJWG

Watonga Regional Airport

Watonga, Oklahoma, USA
METAR KJWG 232015Z AUTO 10008KT 10SM SCT085 SCT100 20/11 A3024 RMK AO2 T02010109
Observed Flight Rules
Oct-23 @ 20:15 UTC (15 minutes ago) Visual Flight Rules
Wind Visibility Clouds
100° at 8 knots 10 miles
  • Scattered at 8,500' AGL
  • Scattered at 10,000' AGL
Temperatures Readings
Current 20°C / 68°F
Dewpoint 11°C / 52°F
Humidity 56%
Altimeter 30.24" Hg
Pressure 1024 hPa
Elevation 472
METAR KJWG 232015Z AUTO 10008KT 10SM SCT085 SCT100 20/11 A3024 RMK AO2 T02010109
Observed Flight Rules
Oct-23 @ 20:15 UTC
(15 minutes ago)
VFR
Wind Visibility
100° at 8 knots 10 miles
Clouds
  • Scattered at 8,500' AGL
  • Scattered at 10,000' AGL
Temperature Dewpoint
20°C / 68°F 11°C / 52°F
Humidity Altimeter Pressure
56% 30.24" Hg 1024 hPa